createdAt,value
2023-10-24T00:00:37.736Z,68.98
2023-10-24T00:03:25.778Z,69.28
2023-10-24T00:05:53.843Z,69.18
2023-10-24T00:08:21.886Z,69.30
2023-10-24T00:10:49.974Z,68.73
2023-10-24T00:13:18.140Z,68.74
2023-10-24T00:15:46.136Z,69.17
2023-10-24T00:18:14.787Z,69.04
2023-10-24T00:20:42.950Z,69.07
2023-10-24T00:23:11.032Z,69.16
2023-10-24T00:25:38.875Z,69.20
2023-10-24T00:28:07.325Z,69.34
2023-10-24T00:30:35.652Z,69.28
2023-10-24T00:33:04.247Z,69.25
2023-10-24T00:35:32.108Z,69.29
2023-10-24T00:38:00.280Z,69.27
2023-10-24T00:40:28.150Z,69.51
2023-10-24T00:43:02.676Z,69.62
2023-10-24T00:45:30.739Z,69.84
2023-10-24T00:47:58.823Z,69.81
2023-10-24T00:50:28.128Z,69.62
2023-10-24T00:52:56.794Z,69.13
2023-10-24T00:55:25.101Z,69.07
2023-10-24T00:57:53.556Z,69.50
2023-10-24T01:00:22.866Z,69.51
2023-10-24T01:02:50.861Z,69.05
2023-10-24T01:05:18.982Z,68.76
2023-10-24T01:07:47.541Z,68.58
2023-10-24T01:10:15.728Z,68.93
2023-10-24T01:12:43.974Z,69.11
2023-10-24T01:15:11.947Z,69.08
2023-10-24T01:17:52.884Z,69.98
2023-10-24T01:20:21.169Z,69.91
2023-10-24T01:22:49.318Z,70.02
2023-10-24T01:25:17.388Z,70.38
2023-10-24T01:27:45.784Z,70.60
2023-10-24T01:30:14.411Z,71.29
2023-10-24T01:32:42.288Z,71.48
2023-10-24T01:35:11.130Z,71.54
2023-10-24T01:37:39.382Z,71.57
2023-10-24T01:40:08.212Z,71.12
2023-10-24T01:42:36.472Z,71.50
2023-10-24T01:45:05.252Z,71.40
2023-10-24T01:47:33.165Z,70.78
2023-10-24T01:50:01.720Z,70.26
2023-10-24T01:52:30.666Z,70.47
2023-10-24T01:54:58.776Z,70.58
2023-10-24T01:57:26.838Z,70.47
2023-10-24T01:59:54.753Z,69.97
2023-10-24T02:02:22.933Z,69.89
2023-10-24T02:04:51.190Z,69.82
2023-10-24T02:07:21.196Z,69.65
2023-10-24T02:09:49.252Z,69.45
2023-10-24T02:12:17.319Z,69.78
2023-10-24T02:14:45.096Z,69.63
2023-10-24T02:17:12.909Z,69.78
2023-10-24T02:19:40.653Z,69.57
2023-10-24T02:22:08.472Z,69.53
2023-10-24T02:24:37.319Z,69.61
2023-10-24T02:27:05.232Z,69.80
2023-10-24T02:29:34.762Z,69.84
2023-10-24T02:32:04.117Z,70.02
2023-10-24T02:34:32.452Z,70.10
2023-10-24T02:37:00.492Z,70.33
2023-10-24T02:39:28.498Z,70.72
2023-10-24T02:41:57.856Z,71.21
2023-10-24T02:44:26.604Z,71.79
2023-10-24T02:46:54.796Z,72.33
2023-10-24T02:49:25.725Z,72.49
2023-10-24T02:51:53.688Z,72.87
2023-10-24T02:54:21.798Z,72.83
2023-10-24T02:56:49.617Z,72.51
2023-10-24T02:59:17.867Z,72.09
2023-10-24T03:01:45.939Z,71.75
2023-10-24T03:04:14.095Z,71.83
2023-10-24T03:06:42.460Z,71.73
2023-10-24T03:09:10.261Z,71.59
2023-10-24T03:11:38.298Z,71.52
2023-10-24T03:14:06.299Z,71.46
2023-10-24T03:16:35.161Z,71.31
2023-10-24T03:19:03.209Z,71.06
2023-10-24T03:21:31.243Z,70.91
2023-10-24T03:23:59.109Z,70.93
2023-10-24T03:26:27.117Z,71.14
2023-10-24T03:28:55.663Z,71.25
2023-10-24T03:31:23.910Z,71.53
2023-10-24T03:33:52.080Z,71.74
2023-10-24T03:36:19.935Z,72.19
2023-10-24T03:38:48.029Z,72.42
2023-10-24T03:41:16.194Z,72.76
2023-10-24T03:43:49.740Z,72.92
2023-10-24T03:46:18.227Z,73.03
2023-10-24T03:48:46.093Z,73.38
2023-10-24T03:51:14.121Z,73.37
2023-10-24T03:53:41.914Z,73.35
2023-10-24T03:56:09.953Z,73.59
2023-10-24T03:58:37.986Z,73.85
2023-10-24T04:01:06.081Z,73.81
2023-10-24T04:03:34.017Z,73.66
2023-10-24T04:06:01.953Z,73.73
2023-10-24T04:08:29.703Z,74.25
2023-10-24T04:10:57.790Z,74.52
2023-10-24T04:13:25.770Z,74.41
2023-10-24T04:16:00.378Z,74.23
2023-10-24T04:18:28.898Z,74.11
2023-10-24T04:20:57.042Z,74.08
2023-10-24T04:23:24.932Z,73.99
2023-10-24T04:25:52.823Z,73.86
2023-10-24T04:28:20.769Z,73.95
2023-10-24T04:30:48.897Z,73.87
2023-10-24T04:33:16.885Z,73.73
2023-10-24T04:35:47.530Z,73.72
2023-10-24T04:38:15.587Z,73.65
2023-10-24T04:40:43.868Z,73.48
2023-10-24T04:43:11.849Z,73.69
2023-10-24T04:45:40.132Z,73.82
2023-10-24T04:48:08.378Z,73.81
2023-10-24T04:50:38.027Z,73.68
2023-10-24T04:53:06.861Z,73.40
2023-10-24T04:55:35.101Z,73.36
2023-10-24T04:58:03.949Z,73.05
2023-10-24T05:00:32.081Z,72.94
2023-10-24T05:03:00.542Z,73.07
2023-10-24T05:05:28.942Z,73.05
2023-10-24T05:07:56.985Z,72.72
2023-10-24T05:10:25.128Z,72.57
2023-10-24T05:12:53.226Z,72.52
2023-10-24T05:15:21.003Z,72.43
2023-10-24T05:17:48.881Z,72.27
2023-10-24T05:20:18.557Z,72.42
2023-10-24T05:22:46.492Z,72.18
2023-10-24T05:25:14.548Z,72.15
2023-10-24T05:27:42.471Z,72.00
2023-10-24T05:30:13.886Z,72.00
2023-10-24T05:32:41.944Z,72.05
2023-10-24T05:35:10.220Z,72.23
2023-10-24T05:37:38.376Z,72.22
2023-10-24T05:40:07.094Z,72.71
2023-10-24T05:42:34.890Z,73.03
2023-10-24T05:45:03.137Z,73.03
2023-10-24T05:47:31.336Z,72.97
2023-10-24T05:49:59.432Z,73.43
2023-10-24T05:52:30.043Z,73.41
2023-10-24T05:54:59.658Z,73.41
2023-10-24T05:57:29.234Z,73.52
2023-10-24T05:59:57.498Z,73.81
2023-10-24T06:02:25.355Z,74.04
2023-10-24T06:04:53.399Z,73.91
2023-10-24T06:07:21.322Z,73.43
2023-10-24T06:09:49.785Z,73.87
2023-10-24T06:12:17.661Z,74.42
2023-10-24T06:14:45.657Z,74.43
2023-10-24T06:17:18.543Z,74.77
2023-10-24T06:19:50.272Z,75.11
2023-10-24T06:22:18.550Z,75.19
2023-10-24T06:24:46.734Z,75.15
2023-10-24T06:27:15.503Z,74.73
2023-10-24T06:29:43.825Z,74.52
2023-10-24T06:32:12.340Z,74.45
2023-10-24T06:34:40.351Z,74.51
2023-10-24T06:37:08.224Z,74.59
2023-10-24T06:39:36.060Z,74.58
2023-10-24T06:42:04.256Z,74.53
2023-10-24T06:44:32.026Z,74.47
2023-10-24T06:47:00.047Z,74.19
2023-10-24T06:49:28.442Z,73.97
2023-10-24T06:51:56.836Z,74.11
2023-10-24T06:54:24.817Z,73.74
2023-10-24T06:56:52.991Z,73.35
2023-10-24T06:59:20.770Z,72.96
2023-10-24T07:01:49.552Z,72.67
2023-10-24T07:04:17.636Z,72.61
2023-10-24T07:06:45.547Z,71.93
2023-10-24T07:09:14.175Z,71.47
2023-10-24T07:11:42.257Z,71.03
2023-10-24T07:14:10.233Z,70.59
2023-10-24T07:16:38.415Z,70.38
2023-10-24T07:19:06.763Z,70.34
2023-10-24T07:21:34.758Z,70.27
2023-10-24T07:24:02.820Z,70.18
2023-10-24T07:26:31.865Z,70.06
2023-10-24T07:28:59.733Z,70.55
2023-10-24T07:31:28.120Z,70.52
2023-10-24T07:33:56.309Z,70.53
2023-10-24T07:36:24.418Z,70.32
2023-10-24T07:38:52.463Z,69.73
2023-10-24T07:41:20.440Z,69.43
2023-10-24T07:43:48.716Z,69.15
2023-10-24T07:46:16.755Z,69.04
2023-10-24T07:48:45.625Z,69.14
2023-10-24T07:51:14.247Z,69.00
2023-10-24T07:53:42.111Z,69.08
2023-10-24T07:56:10.194Z,68.84
2023-10-24T07:58:38.296Z,68.12
2023-10-24T08:01:06.854Z,67.30
2023-10-24T08:03:35.098Z,66.93
2023-10-24T08:06:05.353Z,67.23
2023-10-24T08:08:33.549Z,67.52
2023-10-24T08:11:01.717Z,67.53
2023-10-24T08:13:30.024Z,66.77
2023-10-24T08:15:59.885Z,65.90
2023-10-24T08:18:28.086Z,65.18
2023-10-24T08:20:56.328Z,64.70
2023-10-24T08:23:24.153Z,64.17
2023-10-24T08:25:52.306Z,64.28
2023-10-24T08:28:20.239Z,63.44
2023-10-24T08:30:48.118Z,62.23
2023-10-24T08:33:18.119Z,61.96
2023-10-24T08:35:46.305Z,61.09
2023-10-24T08:38:14.261Z,60.71
2023-10-24T08:40:42.171Z,59.21
2023-10-24T08:43:10.129Z,59.02
2023-10-24T08:45:38.730Z,59.27
2023-10-24T08:48:07.341Z,58.77
2023-10-24T08:50:35.402Z,59.20
2023-10-24T08:53:03.352Z,58.52
2023-10-24T08:55:31.627Z,58.01
2023-10-24T08:58:01.632Z,57.60
2023-10-24T09:00:29.888Z,58.08
2023-10-24T09:02:58.087Z,57.89
2023-10-24T09:05:26.983Z,57.55
2023-10-24T09:07:55.248Z,56.46
2023-10-24T09:10:23.432Z,55.40
2023-10-24T09:12:55.678Z,55.38
2023-10-24T09:15:23.638Z,55.05
2023-10-24T09:17:54.576Z,54.69
2023-10-24T09:20:22.856Z,54.60
2023-10-24T09:22:51.502Z,53.14
2023-10-24T09:25:21.763Z,53.28
2023-10-24T09:27:49.758Z,52.77
2023-10-24T09:30:18.244Z,52.52
2023-10-24T09:32:47.283Z,52.94
2023-10-24T09:35:15.495Z,50.48
2023-10-24T09:37:47.625Z,49.01
2023-10-24T09:40:16.044Z,49.08
2023-10-24T09:42:44.625Z,49.09
2023-10-24T09:45:12.810Z,48.27
2023-10-24T09:47:44.304Z,48.94
2023-10-24T09:50:15.329Z,49.35
2023-10-24T09:52:44.416Z,51.94
2023-10-24T09:55:14.466Z,50.31
2023-10-24T09:57:45.725Z,49.53
2023-10-24T10:00:16.412Z,48.82
2023-10-24T10:02:46.328Z,48.89
2023-10-24T10:05:15.992Z,49.57
2023-10-24T10:07:48.744Z,48.00
2023-10-24T10:10:18.164Z,48.91
2023-10-24T10:12:47.495Z,48.77
2023-10-24T10:15:24.850Z,48.97
2023-10-24T10:18:15.773Z,49.25
2023-10-24T10:20:53.513Z,47.65
2023-10-24T10:23:37.462Z,47.83
2023-10-24T10:26:09.861Z,48.78
2023-10-24T10:28:56.502Z,49.42
2023-10-24T10:32:42.425Z,48.40
2023-10-24T10:34:15.984Z,47.90
2023-10-24T10:36:54.396Z,48.06
2023-10-24T10:39:22.383Z,48.67
2023-10-24T10:41:50.457Z,48.63
2023-10-24T10:44:40.636Z,48.59
2023-10-24T10:47:09.700Z,48.78
2023-10-24T10:49:39.429Z,48.59
2023-10-24T10:52:19.502Z,48.43
2023-10-24T10:54:55.997Z,47.83
2023-10-24T10:57:28.555Z,47.94
2023-10-24T11:00:04.347Z,48.66
2023-10-24T11:02:32.474Z,47.87
2023-10-24T11:05:00.484Z,47.80
2023-10-24T11:07:47.430Z,48.06
2023-10-24T11:10:16.846Z,48.42
2023-10-24T11:12:48.629Z,48.02
2023-10-24T11:15:18.397Z,47.65
2023-10-24T11:17:50.105Z,48.82
2023-10-24T11:20:23.614Z,47.23
2023-10-24T11:22:52.619Z,47.76
2023-10-24T11:25:21.043Z,47.23
2023-10-24T11:27:51.186Z,46.66
2023-10-24T11:30:19.498Z,47.18
2023-10-24T11:32:47.659Z,46.98
2023-10-24T11:35:15.684Z,46.16
2023-10-24T11:37:43.738Z,43.64
2023-10-24T11:40:12.173Z,43.72
2023-10-24T11:42:40.228Z,44.60
2023-10-24T11:45:08.412Z,41.60
2023-10-24T11:47:36.547Z,42.79
2023-10-24T11:50:04.593Z,40.28
2023-10-24T11:52:32.964Z,40.18
2023-10-24T11:55:02.176Z,42.28
2023-10-24T11:57:30.109Z,41.55
2023-10-24T11:59:58.354Z,36.76
2023-10-24T12:02:26.786Z,38.56
2023-10-24T12:04:54.776Z,36.80
2023-10-24T12:07:22.935Z,34.17
2023-10-24T12:09:50.951Z,32.63
2023-10-24T12:12:18.946Z,31.55
2023-10-24T12:14:47.117Z,31.83
2023-10-24T12:17:14.991Z,30.31
2023-10-24T12:19:43.388Z,30.47
2023-10-24T12:22:11.576Z,29.03
2023-10-24T12:24:39.663Z,27.96
2023-10-24T12:27:07.583Z,27.79
2023-10-24T12:29:35.646Z,28.61
2023-10-24T12:32:03.820Z,27.30
2023-10-24T12:34:31.925Z,27.68
2023-10-24T12:37:03.705Z,28.24
2023-10-24T12:39:31.776Z,26.32
2023-10-24T12:41:59.612Z,27.03
2023-10-24T12:44:27.892Z,27.77
2023-10-24T12:46:55.779Z,25.89
2023-10-24T12:49:23.670Z,25.40
2023-10-24T12:51:52.094Z,26.36
2023-10-24T12:54:20.264Z,25.95
2023-10-24T12:56:48.233Z,25.50
2023-10-24T12:59:16.171Z,25.43
2023-10-24T13:01:45.494Z,25.00
2023-10-24T13:04:13.547Z,25.02
2023-10-24T13:06:42.057Z,25.27
2023-10-24T13:09:10.227Z,25.92
2023-10-24T13:11:43.133Z,26.77
2023-10-24T13:14:12.613Z,26.83
2023-10-24T13:16:40.938Z,27.73
2023-10-24T13:19:08.912Z,27.91
2023-10-24T13:21:36.932Z,28.50
2023-10-24T13:24:05.185Z,29.35
2023-10-24T13:26:33.312Z,29.53
2023-10-24T13:29:02.435Z,30.59
2023-10-24T13:31:30.564Z,31.19
2023-10-24T13:34:47.163Z,31.16
2023-10-24T13:36:46.958Z,31.73
2023-10-24T13:39:17.851Z,32.45
2023-10-24T13:41:45.885Z,33.57
2023-10-24T13:44:14.246Z,33.83
2023-10-24T13:46:42.476Z,33.76
2023-10-24T13:49:10.713Z,33.69
2023-10-24T13:51:39.319Z,33.79
2023-10-24T13:54:07.903Z,33.64
2023-10-24T13:56:35.940Z,34.06
2023-10-24T13:59:03.835Z,34.36
2023-10-24T14:01:31.796Z,34.84
2023-10-24T14:04:02.681Z,34.97
2023-10-24T14:06:30.730Z,35.05
2023-10-24T14:08:58.643Z,35.37
2023-10-24T14:11:26.621Z,36.61
2023-10-24T14:13:54.672Z,35.78
2023-10-24T14:16:22.869Z,35.85
2023-10-24T14:18:51.066Z,36.91
2023-10-24T14:21:19.128Z,37.55
2023-10-24T14:23:46.961Z,37.45
2023-10-24T14:26:14.870Z,38.10
2023-10-24T14:28:42.930Z,38.63
2023-10-24T14:31:11.047Z,39.31
2023-10-24T14:33:38.994Z,41.28
2023-10-24T14:36:07.156Z,41.65
2023-10-24T14:38:35.043Z,40.80
2023-10-24T14:41:03.136Z,40.67
2023-10-24T14:43:31.109Z,41.54
2023-10-24T14:45:59.092Z,42.27
2023-10-24T14:48:27.120Z,44.36
2023-10-24T14:50:55.272Z,44.45
2023-10-24T14:53:23.154Z,44.58
2023-10-24T14:55:51.107Z,43.87
2023-10-24T14:58:19.950Z,43.22
2023-10-24T15:00:48.995Z,43.53
2023-10-24T15:03:17.999Z,43.95
2023-10-24T15:05:46.674Z,44.53
2023-10-24T15:08:14.892Z,45.16
2023-10-24T15:10:42.809Z,46.63
2023-10-24T15:13:10.628Z,47.16
2023-10-24T15:15:38.572Z,47.51
2023-10-24T15:18:06.653Z,48.25
2023-10-24T15:20:35.570Z,48.80
2023-10-24T15:23:03.694Z,48.68
2023-10-24T15:25:33.479Z,48.60
2023-10-24T15:28:02.283Z,48.59
2023-10-24T15:30:30.105Z,49.04
2023-10-24T15:32:58.071Z,49.34
2023-10-24T15:35:26.311Z,49.81
2023-10-24T15:37:54.441Z,50.22
2023-10-24T15:40:22.548Z,50.63
2023-10-24T15:42:50.435Z,51.23
2023-10-24T15:45:18.341Z,51.76
2023-10-24T15:47:47.730Z,52.35
2023-10-24T15:50:17.668Z,52.96
2023-10-24T15:52:48.123Z,52.49
2023-10-24T15:55:27.505Z,51.04
2023-10-24T15:57:58.851Z,51.72
2023-10-24T16:00:29.638Z,51.99
2023-10-24T16:02:57.666Z,53.16
2023-10-24T16:05:25.912Z,52.82
2023-10-24T16:07:53.937Z,53.17
2023-10-24T16:10:22.138Z,53.34
2023-10-24T16:12:50.062Z,53.71
2023-10-24T16:15:18.017Z,54.11
2023-10-24T16:17:45.954Z,54.30
2023-10-24T16:20:13.907Z,54.42
2023-10-24T16:22:42.176Z,55.43
2023-10-24T16:25:10.743Z,56.18
2023-10-24T16:27:38.738Z,56.27
2023-10-24T16:30:10.314Z,56.71
2023-10-24T16:32:39.673Z,56.03
2023-10-24T16:35:10.205Z,55.84
2023-10-24T16:37:39.633Z,56.86
2023-10-24T16:40:08.037Z,56.71
2023-10-24T16:42:36.092Z,56.57
2023-10-24T16:45:04.176Z,56.93
2023-10-24T16:47:32.769Z,56.71
2023-10-24T16:50:00.889Z,57.64
2023-10-24T16:52:29.199Z,57.11
2023-10-24T16:54:57.169Z,57.20
2023-10-24T16:57:25.260Z,57.18
2023-10-24T16:59:56.280Z,57.66
2023-10-24T17:02:24.388Z,57.88
2023-10-24T17:04:52.557Z,58.13
2023-10-24T17:07:20.703Z,58.22
2023-10-24T17:09:48.542Z,58.15
2023-10-24T17:12:16.537Z,58.01
2023-10-24T17:14:46.379Z,58.48
2023-10-24T17:17:22.136Z,58.83
2023-10-24T17:19:50.469Z,59.55
2023-10-24T17:22:18.301Z,60.21
2023-10-24T17:24:46.217Z,60.93
2023-10-24T17:27:16.573Z,61.16
2023-10-24T17:29:44.542Z,61.73
2023-10-24T17:32:12.551Z,61.11
2023-10-24T17:34:41.652Z,60.96
2023-10-24T17:37:11.347Z,60.81
2023-10-24T17:39:39.503Z,60.85
2023-10-24T17:42:09.488Z,60.99
2023-10-24T17:44:37.673Z,61.15
2023-10-24T17:47:06.176Z,61.65
2023-10-24T17:49:36.578Z,61.71
2023-10-24T17:52:04.958Z,61.78
2023-10-24T17:54:36.821Z,62.23
2023-10-24T17:57:05.000Z,62.56
2023-10-24T17:59:33.091Z,62.59
2023-10-24T18:02:02.482Z,62.83
2023-10-24T18:04:33.095Z,62.62
2023-10-24T18:07:24.169Z,62.73
2023-10-24T18:09:53.094Z,62.84
2023-10-24T18:12:21.166Z,63.72
2023-10-24T18:14:50.481Z,64.42
2023-10-24T18:17:18.583Z,64.00
2023-10-24T18:20:00.191Z,63.70
2023-10-24T18:22:28.304Z,63.64
2023-10-24T18:24:58.947Z,63.54
2023-10-24T18:27:27.238Z,63.73
2023-10-24T18:29:55.102Z,63.59
2023-10-24T18:32:23.058Z,63.62
2023-10-24T18:34:51.373Z,63.74
2023-10-24T18:37:19.811Z,63.50
2023-10-24T18:39:48.122Z,63.43
2023-10-24T18:42:18.096Z,63.87
2023-10-24T18:44:48.706Z,64.58
2023-10-24T18:47:18.950Z,64.85
2023-10-24T18:49:48.524Z,64.74
2023-10-24T18:52:19.509Z,64.70
2023-10-24T18:54:47.313Z,64.79
2023-10-24T18:57:17.905Z,65.19
2023-10-24T18:59:45.975Z,65.31
2023-10-24T19:04:45.511Z,65.39
2023-10-24T19:07:13.584Z,65.50
2023-10-24T19:09:41.769Z,66.01
2023-10-24T19:12:11.834Z,66.19
2023-10-24T19:17:12.496Z,66.09
2023-10-24T19:19:54.206Z,65.67
2023-10-24T19:22:22.180Z,64.19
2023-10-24T19:25:00.821Z,64.18
2023-10-24T19:27:30.618Z,65.13
2023-10-24T19:30:01.657Z,65.77
2023-10-24T19:32:32.821Z,65.61
2023-10-24T19:35:00.921Z,66.06
2023-10-24T19:37:34.903Z,66.08
2023-10-24T19:40:09.234Z,66.13
2023-10-24T19:42:37.445Z,66.19
2023-10-24T19:45:06.053Z,66.45
2023-10-24T19:47:38.507Z,66.86
2023-10-24T19:50:08.365Z,66.77
2023-10-24T19:52:36.324Z,66.47
2023-10-24T19:55:08.841Z,66.12
2023-10-24T19:57:39.031Z,66.02
2023-10-24T20:00:10.767Z,65.85
2023-10-24T20:02:38.975Z,65.94
2023-10-24T20:05:08.276Z,66.56
2023-10-24T20:07:38.248Z,67.03
2023-10-24T20:11:41.190Z,67.18
2023-10-24T20:12:57.021Z,67.17
2023-10-24T20:15:25.311Z,67.01
2023-10-24T20:17:55.134Z,67.02
2023-10-24T20:20:23.513Z,67.37
2023-10-24T20:22:52.203Z,67.50
2023-10-24T20:25:20.771Z,67.72
2023-10-24T20:27:48.782Z,67.92
2023-10-24T20:30:16.909Z,67.91
2023-10-24T20:32:45.643Z,67.78
2023-10-24T20:35:16.536Z,67.62
2023-10-24T20:37:44.477Z,67.76
2023-10-24T20:40:12.783Z,68.00
2023-10-24T20:42:40.983Z,67.91
2023-10-24T20:45:09.380Z,68.01
2023-10-24T20:47:37.813Z,67.93
2023-10-24T20:50:06.410Z,68.26
2023-10-24T20:52:35.483Z,68.26
2023-10-24T20:55:04.399Z,67.67
2023-10-24T20:57:33.225Z,67.95
2023-10-24T21:00:01.341Z,68.43
2023-10-24T21:02:29.580Z,68.65
2023-10-24T21:04:57.649Z,68.69
2023-10-24T21:07:25.695Z,68.53
2023-10-24T21:09:53.630Z,68.87
2023-10-24T21:12:21.688Z,69.08
2023-10-24T21:14:49.756Z,69.01
2023-10-24T21:17:17.636Z,68.82
2023-10-24T21:19:46.384Z,68.76
2023-10-24T21:22:14.264Z,68.90
2023-10-24T21:24:42.298Z,68.59
2023-10-24T21:27:10.320Z,68.49
2023-10-24T21:29:38.290Z,68.69
2023-10-24T21:32:06.738Z,68.66
2023-10-24T21:34:34.957Z,68.68
2023-10-24T21:37:03.147Z,68.62
2023-10-24T21:39:32.639Z,68.51
2023-10-24T21:42:01.235Z,68.42
2023-10-24T21:44:34.018Z,68.52
2023-10-24T21:47:07.806Z,68.31
2023-10-24T21:49:35.882Z,68.23
2023-10-24T21:52:04.013Z,68.34
2023-10-24T21:54:31.963Z,68.73
2023-10-24T21:56:59.876Z,68.72
2023-10-24T21:59:28.006Z,68.39
2023-10-24T22:01:56.193Z,68.61
2023-10-24T22:04:24.357Z,68.85
2023-10-24T22:06:52.455Z,68.93
2023-10-24T22:09:20.578Z,69.00
2023-10-24T22:11:49.509Z,68.94
2023-10-24T22:14:17.352Z,69.08
2023-10-24T22:16:45.266Z,69.44
2023-10-24T22:19:13.515Z,69.75
2023-10-24T22:21:41.687Z,69.72
2023-10-24T22:24:10.343Z,69.56
2023-10-24T22:26:38.311Z,69.87
2023-10-24T22:29:06.376Z,69.46
2023-10-24T22:31:34.646Z,69.55
2023-10-24T22:34:02.875Z,69.60
2023-10-24T22:36:30.808Z,69.35
2023-10-24T22:38:58.668Z,69.39
2023-10-24T22:41:26.659Z,69.50
2023-10-24T22:43:54.503Z,69.85
2023-10-24T22:46:22.910Z,69.93
2023-10-24T22:48:51.069Z,70.40
2023-10-24T22:51:19.337Z,70.51
2023-10-24T22:53:47.713Z,70.36
2023-10-24T22:56:15.892Z,70.84
2023-10-24T22:58:45.506Z,70.67
2023-10-24T23:01:14.172Z,70.60
2023-10-24T23:03:42.288Z,70.74
2023-10-24T23:06:10.449Z,70.85
2023-10-24T23:08:38.498Z,71.33
2023-10-24T23:11:07.076Z,71.58
2023-10-24T23:13:35.666Z,71.52
2023-10-24T23:16:08.446Z,71.47
2023-10-24T23:18:38.487Z,71.48
2023-10-24T23:21:06.332Z,71.65
2023-10-24T23:23:34.501Z,71.68
2023-10-24T23:26:02.681Z,71.53
2023-10-24T23:28:31.056Z,71.75
2023-10-24T23:30:59.309Z,71.90
2023-10-24T23:33:27.276Z,71.85
2023-10-24T23:35:55.289Z,71.66
2023-10-24T23:38:23.121Z,71.61
2023-10-24T23:40:51.213Z,71.74
2023-10-24T23:43:19.157Z,71.70
2023-10-24T23:45:47.159Z,71.79
2023-10-24T23:48:15.003Z,71.76
2023-10-24T23:50:43.078Z,71.96
2023-10-24T23:53:11.152Z,72.00
2023-10-24T23:55:39.024Z,71.72
2023-10-24T23:58:07.682Z,71.30
